Terminal Aerodrome Forecast
Issued by NWS

Home | Current Version | Previous Version | Text Only | Print | Product List | Glossary On
Versions: 1 2 3 4 5 6 7 8 9 10 11 12 13 14 15 16 17
000
FTUS45 KRIW 200521
TAFCOD
TAF
KCOD 200521Z 2006/2106 26012G20KT P6SM SCT150 BKN200 WS015/25045KT
     FM200900 23020G30KT P6SM BKN150 OVC200 WS015/26055KT
     FM201500 24025G40KT P6SM OVC150 WS016/26065KT
     FM202300 25015G25KT P6SM SCT070 BKN110 WS017/26050KT
     FM210400 25011KT P6SM SCT060 BKN100
      AMD LTD TO CLD VIS AND WIND=

USA.gov is the U.S. government's official web portal to all federal, state and local government web resources and services.